Time;durP1;ratioP1;P1;durP2;ratioP2;P2;SDS_P1;SDS_P2;PMS_P1;PMS_P2;Temp;Humidity;BMP_temperature;BMP_pressure;BME280_temperature;BME280_humidity;BME280_pressure;Samples;Min_cycle;Max_cycle;Signal;HPM_P1;HPM_P2
2022/06/29 14:41:42;;;;;;;5.20;4.70;;;43.60;37.80;;;35.03;29.50;95303.50;5025866;28;20452;-51
2022/06/29 14:44:08;;;;;;;4.93;4.53;;;42.70;32.50;;;34.29;30.92;95299.94;4994859;28;20031;-53
2022/06/29 14:46:34;;;;;;;5.60;4.43;;;42.10;30.90;;;33.46;32.46;95299.81;4948710;28;20392;-48
2022/06/29 14:49:00;;;;;;;6.35;4.85;;;41.30;30.10;;;33.62;32.25;95301.94;4988429;28;20026;-48
2022/06/29 14:51:26;;;;;;;5.40;4.88;;;41.70;29.50;;;33.75;31.94;95299.34;5007753;28;20035;-52
2022/06/29 14:53:59;;;;;;;5.10;4.70;;;41.80;28.80;;;34.10;31.24;95295.19;4977658;28;20121;-47
2022/06/29 14:56:25;;;;;;;5.95;5.35;;;42.60;27.80;;;34.59;30.77;95297.38;4998126;28;20023;-48
2022/06/29 14:58:51;;;;;;;7.63;5.82;;;43.60;27.40;;;34.90;29.77;95289.59;4992836;28;20027;-47
2022/06/29 15:01:18;;;;;;;7.25;6.22;;;44.80;26.40;;;35.30;28.54;95303.31;5040172;28;20029;-46
2022/06/29 15:03:51;;;;;;;4.78;4.38;;;45.80;25.50;;;34.97;29.43;95292.19;5015443;28;20027;-47
2022/06/29 15:06:17;;;;;;;6.15;5.50;;;45.10;25.00;;;34.75;29.65;95287.13;4993446;28;20118;-45
2022/06/29 15:08:43;;;;;;;7.13;5.40;;;45.00;25.10;;;34.80;29.18;95291.38;4997236;28;20015;-46
2022/06/29 15:11:12;;;;;;;4.50;4.10;;;45.50;24.60;;;34.69;28.43;95288.88;4987519;28;20089;-44
2022/06/29 15:13:42;;;;;;;3.92;3.55;;;44.80;24.20;;;34.21;29.79;95275.63;4970872;28;20019;-46
2022/06/29 15:16:09;;;;;;;4.20;3.25;;;43.80;24.40;;;33.70;30.39;95267.50;4927665;28;20457;-45
2022/06/29 15:18:35;;;;;;;4.55;4.15;;;42.80;24.80;;;33.66;30.00;95277.84;4969671;28;20026;-45
2022/06/29 15:21:04;;;;;;;5.40;4.90;;;42.90;24.80;;;33.97;29.58;95267.41;5002658;28;20035;-48
2022/06/29 15:23:37;;;;;;;7.22;4.90;;;44.20;24.00;;;34.51;29.37;95263.56;5008789;28;20119;-49
2022/06/29 15:26:03;;;;;;;7.53;5.38;;;45.80;23.30;;;34.85;28.85;95266.00;4990454;28;20036;-49
2022/06/29 15:28:28;;;;;;;6.65;4.88;;;46.70;22.90;;;34.86;28.24;95269.53;5036039;28;20013;-53
2022/06/29 15:30:54;;;;;;;6.93;4.22;;;46.30;22.70;;;34.45;29.01;95260.50;4994479;28;20032;-48
2022/06/29 15:38:52;;;;;;;5.15;4.65;;;43.10;23.60;;;33.71;30.05;95252.47;5042990;28;20454;-57
2022/06/29 15:41:18;;;;;;;7.78;5.25;;;44.40;23.20;;;34.13;28.96;95254.84;5041305;28;20032;-57
2022/06/29 15:43:44;;;;;;;6.07;5.60;;;46.00;22.30;;;34.44;28.38;95252.63;5043300;28;20028;-57
2022/06/29 15:46:16;;;;;;;7.05;6.25;;;47.50;21.50;;;34.66;27.92;95248.25;5039273;28;20368;-55
2022/06/29 15:48:43;;;;;;;7.00;6.22;;;48.90;20.50;;;34.23;28.69;95240.84;5039798;28;20386;-57
2022/06/29 15:51:09;;;;;;;7.03;6.32;;;48.90;20.20;;;34.60;27.73;95244.44;5041042;28;20115;-56
2022/06/29 15:56:19;;;;;;;5.88;5.00;;;49.60;19.50;;;34.99;28.39;95251.03;5026519;28;20039;-54
2022/06/29 15:59:06;;;;;;;6.70;4.22;;;49.00;19.80;;;34.28;28.46;95245.84;5026021;28;20021;-52
2022/06/29 16:01:32;;;;;;;7.95;3.92;;;47.30;20.30;;;33.99;29.33;95234.59;5026906;28;20488;-55
2022/06/29 16:03:59;;;;;;;4.60;3.33;;;45.70;21.10;;;33.53;32.33;95244.53;5027797;28;20059;-52
2022/06/29 16:06:26;;;;;;;4.10;3.40;;;44.40;22.70;;;33.22;33.57;95232.03;5029275;28;20123;-52
2022/06/29 16:08:55;;;;;;;4.82;3.65;;;43.20;23.20;;;32.86;32.25;95233.38;5023354;28;20036;-54
2022/06/29 16:11:20;;;;;;;4.38;3.60;;;42.10;23.90;;;32.36;34.66;95227.78;5020647;28;20025;-53
2022/06/29 16:13:47;;;;;;;5.15;2.78;;;41.20;24.50;;;31.93;35.00;95217.28;5023499;28;20062;-50
2022/06/29 16:16:15;;;;;;;10.38;3.90;;;40.50;25.20;;;31.86;34.84;95222.88;5027703;28;20471;-55
2022/06/29 16:18:41;;;;;;;7.63;4.50;;;40.90;25.00;;;32.16;35.19;95219.38;5022406;28;20063;-53
2022/06/29 16:21:07;;;;;;;4.90;4.07;;;42.60;24.60;;;32.70;32.64;95219.44;5016559;28;20112;-55
2022/06/29 16:23:36;;;;;;;7.30;5.25;;;44.40;23.30;;;33.20;31.34;95213.16;5011726;28;20028;-55
2022/06/29 16:26:05;;;;;;;5.82;4.20;;;46.10;22.10;;;33.48;32.47;95209.09;5018217;28;20091;-56
2022/06/29 16:28:36;;;;;;;4.75;3.65;;;45.90;22.00;;;33.12;31.78;95209.72;5011081;28;20448;-55
2022/06/29 16:31:02;;;;;;;3.83;3.20;;;44.60;22.50;;;32.85;32.61;95206.22;5023479;28;20103;-55
2022/06/29 16:33:28;;;;;;;5.30;4.20;;;43.30;23.10;;;32.60;32.01;95201.09;5018552;28;20120;-53
2022/06/29 16:35:54;;;;;;;4.72;4.32;;;43.00;23.20;;;32.82;32.27;95205.06;5023160;28;20028;-55
2022/06/29 16:38:20;;;;;;;6.00;5.05;;;44.10;22.70;;;33.23;31.13;95200.50;5021072;28;20034;-55
2022/06/29 16:40:45;;;;;;;9.45;4.88;;;45.50;21.90;;;33.42;32.00;95198.97;5024248;28;20829;-56
2022/06/29 16:43:15;;;;;;;7.15;5.60;;;46.80;21.30;;;33.86;29.60;95198.53;5016005;28;20967;-57
2022/06/29 16:45:40;;;;;;;6.72;6.03;;;48.00;20.40;;;34.25;29.82;95199.75;5037041;28;20116;-57
2022/06/29 16:48:06;;;;;;;7.63;6.90;;;49.10;19.80;;;34.58;28.49;95193.53;5018391;28;20021;-57
2022/06/29 16:50:32;;;;;;;7.32;6.45;;;50.00;19.10;;;34.90;28.58;95195.53;5027260;28;20107;-57
2022/06/29 16:52:58;;;;;;;8.10;7.35;;;50.80;18.70;;;35.41;27.27;95198.59;5006061;28;20373;-56
2022/06/29 16:55:24;;;;;;;7.88;6.97;;;51.40;18.20;;;35.45;27.20;95194.53;5013375;28;20032;-57
2022/06/29 16:57:53;;;;;;;7.80;6.90;;;51.80;17.80;;;35.32;27.74;95187.38;5009321;28;20391;-55
2022/06/29 17:00:19;;;;;;;10.50;6.95;;;52.10;17.60;;;34.21;28.66;95176.91;5042002;28;20032;-53
2022/06/29 17:02:49;;;;;;;8.43;6.97;;;52.30;17.30;;;34.64;29.43;95186.28;5020162;28;20797;-56
2022/06/29 17:05:26;;;;;;;8.50;7.85;;;52.50;17.30;;;35.33;29.07;95186.19;5013096;28;20029;-56
2022/06/29 17:07:55;;;;;;;9.38;7.38;;;52.80;17.40;;;35.71;27.33;95185.59;5019406;28;20417;-55
2022/06/29 17:10:21;;;;;;;7.82;7.20;;;53.00;17.10;;;35.78;27.24;95183.38;5021262;28;20029;-54
2022/06/29 17:12:53;;;;;;;5.45;5.10;;;53.00;16.90;;;35.51;27.30;95175.41;5024332;28;20359;-52
2022/06/29 17:15:19;;;;;;;5.93;4.28;;;53.10;16.70;;;34.12;29.15;95173.19;5043947;28;20033;-55
2022/06/29 17:17:45;;;;;;;5.13;3.50;;;52.20;16.60;;;33.66;30.08;95170.16;5023281;28;20025;-55
2022/06/29 17:20:12;;;;;;;6.88;3.22;;;50.00;17.40;;;33.22;30.09;95163.06;5006543;28;20130;-53
2022/06/29 17:22:41;;;;;;;7.15;3.53;;;47.50;18.60;;;32.68;31.54;95172.19;5016822;28;20021;-57
2022/06/29 17:25:10;;;;;;;4.18;3.30;;;45.20;19.80;;;32.03;32.42;95170.34;5026476;28;20374;-57
2022/06/29 17:27:38;;;;;;;3.50;3.08;;;43.00;21.20;;;31.33;33.55;95164.44;5027937;28;20090;-50
2022/06/29 17:30:07;;;;;;;4.70;3.03;;;41.30;22.20;;;30.64;35.08;95161.50;5029942;28;20025;-55
2022/06/29 17:32:39;;;;;;;3.88;2.80;;;39.70;23.40;;;29.76;36.33;95162.78;5022614;28;20041;-57
2022/06/29 17:35:08;;;;;;;;;;;38.40;24.60;;;29.07;38.11;95162.16;5025767;28;20025;-57
2022/06/29 17:37:37;;;;;;;27.27;17.23;;;37.20;24.90;;;28.54;39.47;95158.22;5023156;28;19996;-51
2022/06/29 17:40:04;;;;;;;84.43;39.05;;;36.30;26.10;;;28.33;40.51;95155.44;5020273;28;20040;-57
2022/06/29 17:42:35;;;;;;;7.47;4.82;;;35.40;27.10;;;28.14;41.44;95154.66;5022991;28;20159;-56
2022/06/29 17:45:08;;;;;;;4.67;3.13;;;34.60;28.20;;;27.69;41.76;95151.34;5018173;28;20020;-55
2022/06/29 17:47:33;;;;;;;;;;;33.90;29.00;;;27.44;43.00;95153.97;5020211;28;20147;-56
2022/06/29 17:49:59;;;;;;;5.90;3.30;;;33.30;29.00;;;27.17;45.30;95152.66;5026676;28;20301;-53
2022/06/29 17:52:25;;;;;;;4.25;2.45;;;32.90;30.10;;;26.90;44.92;95152.84;5021589;28;20076;-54
2022/06/29 17:54:51;;;;;;;5.72;2.72;;;32.40;31.00;;;26.51;44.28;95149.81;5023263;28;20074;-55
2022/06/29 17:57:19;;;;;;;7.38;2.83;;;32.00;31.60;;;26.26;44.33;95147.66;5011035;28;20025;-54
2022/06/29 17:59:45;;;;;;;3.88;2.50;;;31.70;32.10;;;26.05;45.02;95148.22;5012103;28;20020;-52
2022/06/29 18:02:11;;;;;;;5.97;2.88;;;31.30;32.60;;;26.00;46.50;95151.25;5018810;28;20070;-53
2022/06/29 18:04:38;;;;;;;6.38;2.72;;;31.00;33.30;;;25.86;46.33;95150.34;5037448;28;20052;-53
2022/06/29 18:07:05;;;;;;;4.43;3.38;;;30.80;33.90;;;25.69;46.83;95154.41;4993011;28;20029;-56
2022/06/29 18:09:31;;;;;;;9.52;3.67;;;30.50;34.40;;;25.64;48.65;95158.25;5020533;28;20028;-54
2022/06/29 18:11:57;;;;;;;3.72;2.70;;;30.40;35.20;;;25.54;48.62;95161.63;5015388;28;20386;-55
2022/06/29 18:14:23;;;;;;;5.30;3.00;;;30.10;35.70;;;25.41;50.68;95160.28;5016672;28;20026;-56
2022/06/29 18:16:56;;;;;;;6.70;3.08;;;30.00;36.50;;;25.20;50.91;95163.53;5024173;28;20049;-56
2022/06/29 18:19:22;;;;;;;3.97;2.97;;;29.80;37.00;;;25.00;51.07;95154.63;5026938;28;20029;-53
2022/06/29 18:21:48;;;;;;;7.82;3.30;;;29.60;37.40;;;24.95;51.76;95150.31;5027917;28;20127;-53
2022/06/29 18:24:14;;;;;;;6.63;2.53;;;29.50;38.00;;;24.78;52.83;95158.97;5027643;28;20107;-52
2022/06/29 18:26:43;;;;;;;5.20;2.58;;;29.30;38.50;;;24.55;53.52;95153.56;5027951;28;20028;-51
2022/06/29 18:29:09;;;;;;;4.30;2.70;;;29.00;39.10;;;24.40;54.57;95156.03;5043988;28;20021;-52
2022/06/29 18:31:40;;;;;;;3.65;2.38;;;28.80;39.60;;;24.21;54.22;95158.81;5024050;28;20040;-56
2022/06/29 18:34:09;;;;;;;4.05;2.45;;;28.60;40.00;;;24.06;54.58;95159.69;5026815;28;20637;-49
2022/06/29 18:36:38;;;;;;;6.40;2.90;;;28.40;40.40;;;23.93;54.15;95159.06;5007867;28;20032;-51
2022/06/29 18:39:05;;;;;;;5.18;2.75;;;28.20;40.90;;;23.77;54.75;95159.94;5007512;28;20025;-53
2022/06/29 18:41:39;;;;;;;3.88;2.63;;;27.90;41.10;;;23.65;55.30;95162.78;5018703;28;20068;-54
2022/06/29 18:44:08;;;;;;;4.78;2.92;;;27.70;41.50;;;23.50;57.60;95163.63;5009228;28;20041;-56
2022/06/29 18:46:34;;;;;;;3.50;2.70;;;27.50;42.10;;;23.32;57.97;95164.06;5035242;28;20025;-55
2022/06/29 18:49:02;;;;;;;4.70;2.53;;;27.40;42.60;;;23.15;59.06;95160.97;5023940;28;20025;-55
2022/06/29 18:51:29;;;;;;;6.80;2.63;;;27.20;43.10;;;22.84;60.48;95168.78;5008557;28;20032;-52
2022/06/29 18:53:54;;;;;;;3.70;2.85;;;27.00;43.60;;;22.67;60.92;95171.88;5010037;28;20427;-49
2022/06/29 18:56:20;;;;;;;4.05;2.90;;;26.80;44.00;;;22.54;60.55;95171.19;5008971;28;20032;-55
2022/06/29 18:58:49;;;;;;;5.82;2.85;;;26.60;44.40;;;22.40;61.31;95174.34;5008876;28;20606;-55
2022/06/29 19:01:15;;;;;;;5.22;2.63;;;26.40;44.80;;;22.31;61.53;95164.78;5018458;28;20060;-51
2022/06/29 19:03:47;;;;;;;2.65;2.42;;;26.30;45.30;;;22.22;62.77;95178.56;5044097;28;20121;-56
2022/06/29 19:06:21;;;;;;;5.78;2.65;;;26.10;45.80;;;22.12;62.86;95176.28;5026993;28;20116;-55
2022/06/29 19:08:54;;;;;;;6.00;3.00;;;26.00;46.50;;;22.05;63.31;95167.97;5014462;28;20028;-53
2022/06/29 19:14:12;;;;;;;6.18;2.67;;;25.70;47.40;;;21.83;65.02;95174.75;5028644;28;20032;-54
2022/06/29 19:16:40;;;;;;;3.75;2.70;;;25.60;47.70;;;21.72;65.64;95182.63;5028579;28;20024;-49
2022/06/29 19:19:06;;;;;;;3.35;2.95;;;25.40;48.00;;;21.63;66.24;95171.91;5022095;28;20052;-50
2022/06/29 19:21:32;;;;;;;4.25;2.72;;;25.30;48.40;;;21.55;66.88;95177.47;5027347;28;20128;-53
2022/06/29 19:24:02;;;;;;;4.57;2.95;;;25.30;49.00;;;21.45;67.86;95184.16;5016607;28;20056;-49
2022/06/29 19:26:29;;;;;;;6.30;2.90;;;25.10;49.40;;;21.33;67.83;95182.25;5007710;28;20108;-48
2022/06/29 19:28:56;;;;;;;6.28;3.47;;;25.00;49.80;;;21.20;68.62;95181.47;5012427;28;20044;-50
2022/06/29 19:31:27;;;;;;;3.78;3.10;;;24.90;50.10;;;21.05;68.91;95178.69;5026869;28;20032;-51
2022/06/29 19:33:55;;;;;;;5.45;2.85;;;24.70;50.60;;;20.93;69.61;95179.50;5028668;28;20043;-47
2022/06/29 19:36:23;;;;;;;5.78;3.25;;;24.70;50.80;;;20.83;69.54;95188.06;5012535;28;20036;-47
2022/06/29 19:38:53;;;;;;;11.07;3.40;;;24.50;51.10;;;20.71;69.83;95186.16;5012509;28;20037;-48
2022/06/29 19:41:25;;;;;;;7.60;2.90;;;24.40;51.50;;;20.56;70.28;95183.00;5024326;28;20029;-51
2022/06/29 19:44:03;;;;;;;5.50;2.92;;;24.30;51.70;;;20.42;71.30;95190.63;5030111;28;20025;-52
2022/06/29 19:49:15;;;;;;;12.13;3.55;;;24.00;52.20;;;20.20;71.87;95191.84;5021770;28;20091;-49
2022/06/29 19:51:44;;;;;;;8.38;3.53;;;23.90;52.40;;;20.11;72.03;95196.53;5010501;28;20492;-52
2022/06/29 19:54:15;;;;;;;5.28;3.47;;;23.80;53.00;;;20.00;72.17;95193.50;5011753;28;20483;-48
2022/06/29 19:56:42;;;;;;;6.70;3.92;;;23.70;53.10;;;19.91;71.77;95200.88;5012168;28;20058;-51
2022/06/29 19:59:11;;;;;;;3.67;2.55;;;23.60;53.20;;;19.79;70.78;95206.25;5016893;28;20012;-49
2022/06/29 20:01:40;;;;;;;6.95;2.83;;;23.50;53.40;;;19.68;71.18;95205.88;5047186;28;20506;-50
2022/06/29 20:04:05;;;;;;;6.05;2.90;;;23.40;53.50;;;19.57;71.64;95216.25;5011665;28;20108;-50
2022/06/29 20:06:32;;;;;;;6.47;2.90;;;23.30;53.60;;;19.49;71.79;95216.31;5010134;28;20101;-49
2022/06/29 20:08:58;;;;;;;3.83;3.05;;;23.20;53.70;;;19.41;71.89;95216.06;5033247;28;20404;-54
2022/06/29 20:11:29;;;;;;;3.92;3.13;;;23.00;53.90;;;19.31;72.85;95218.38;5031980;28;20032;-53
2022/06/29 20:13:55;;;;;;;4.57;3.30;;;23.00;54.30;;;19.23;72.81;95214.59;5024034;28;20108;-56
2022/06/29 20:16:22;;;;;;;4.32;3.20;;;22.90;54.30;;;19.15;72.66;95212.78;5005579;28;20395;-49
2022/06/29 20:18:53;;;;;;;5.85;3.03;;;22.80;54.50;;;19.09;73.17;95222.97;5017736;28;20457;-48
2022/06/29 20:21:26;;;;;;;4.13;3.10;;;22.80;54.90;;;19.04;73.24;95222.34;5011219;28;20033;-46
2022/06/29 20:23:53;;;;;;;5.75;3.33;;;22.70;55.10;;;18.98;73.52;95226.34;5020021;28;20483;-50
2022/06/29 20:26:24;;;;;;;5.40;3.42;;;22.60;55.00;;;18.92;73.91;95231.94;5026742;28;20056;-47
2022/06/29 20:28:53;;;;;;;8.68;3.13;;;22.50;55.20;;;18.83;73.90;95223.09;5017397;28;20025;-47
2022/06/29 20:31:32;;;;;;;5.70;3.05;;;22.50;55.50;;;18.76;74.32;95219.31;5019166;28;20029;-48
2022/06/29 20:33:58;;;;;;;6.50;3.20;;;22.40;55.70;;;18.67;74.55;95227.44;5028514;28;20495;-45
2022/06/29 20:36:24;;;;;;;3.95;3.55;;;22.30;55.60;;;18.61;74.94;95223.31;5029118;28;20029;-48
2022/06/29 20:38:58;;;;;;;6.55;3.60;;;22.30;55.70;;;18.56;75.20;95223.53;5031032;28;20016;-47
2022/06/29 20:41:24;;;;;;;9.52;3.50;;;22.20;56.00;;;18.46;75.93;95233.56;5036194;28;20468;-53
2022/06/29 20:46:36;;;;;;;6.38;4.07;;;22.00;56.20;;;18.35;76.14;95228.81;5021126;28;20052;-46
2022/06/29 20:49:02;;;;;;;6.25;3.42;;;22.00;56.40;;;18.31;76.07;95226.00;5022297;28;20112;-50
2022/06/29 20:51:28;;;;;;;3.67;3.28;;;21.90;56.60;;;18.28;76.44;95229.31;5020876;28;20021;-51
2022/06/29 20:53:57;;;;;;;4.70;3.35;;;21.90;56.80;;;18.23;76.29;95227.56;5012424;28;20033;-50
2022/06/29 20:56:23;;;;;;;8.10;3.50;;;21.80;56.90;;;18.20;76.59;95232.81;5011141;28;20752;-56
2022/06/29 20:58:52;;;;;;;5.68;3.97;;;21.80;57.10;;;18.14;76.85;95234.09;5010943;28;20032;-46
2022/06/29 21:01:25;;;;;;;6.75;4.10;;;21.80;58.00;;;18.09;77.10;95245.06;5009528;28;20028;-44
2022/06/29 21:03:51;;;;;;;7.07;4.30;;;21.70;57.60;;;18.01;77.38;95242.06;5028159;28;20029;-45
2022/06/29 21:06:18;;;;;;;8.63;4.53;;;21.60;57.40;;;17.99;77.56;95240.81;5012445;28;20025;-48
2022/06/29 21:08:44;;;;;;;9.13;4.72;;;21.60;57.70;;;17.93;77.86;95242.88;5045160;28;20013;-48
2022/06/29 21:11:13;;;;;;;7.13;4.28;;;21.60;57.90;;;17.89;78.14;95243.81;5029428;28;20071;-49
2022/06/29 21:13:40;;;;;;;6.20;4.18;;;21.50;58.10;;;17.84;78.46;95242.09;5028095;28;20034;-45
2022/06/29 21:16:12;;;;;;;5.80;4.35;;;21.50;58.20;;;17.75;79.11;95246.66;5031231;28;20039;-46
2022/06/29 21:18:44;;;;;;;6.22;4.22;;;21.40;58.40;;;17.70;79.25;95236.03;5026037;28;20025;-44
2022/06/29 21:21:19;;;;;;;6.93;4.22;;;21.40;58.50;;;17.69;79.08;95248.72;5007197;28;20106;-45
2022/06/29 21:23:44;;;;;;;7.57;4.72;;;21.30;58.60;;;17.65;79.20;95247.78;4999918;28;20033;-51
2022/06/29 21:26:10;;;;;;;6.97;4.18;;;21.30;58.60;;;17.60;79.54;95245.25;5011476;28;20048;-45
2022/06/29 21:28:36;;;;;;;5.32;4.25;;;21.30;58.80;;;17.57;79.32;95237.78;5009860;28;20021;-49
2022/06/29 21:31:05;;;;;;;6.57;4.20;;;21.20;58.80;;;17.51;79.63;95237.16;5017736;28;20433;-45
2022/06/29 21:33:33;;;;;;;6.95;3.85;;;21.20;59.00;;;17.47;79.39;95243.50;5032215;22;20522;-48
2022/06/29 21:35:59;;;;;;;5.07;3.60;;;21.20;59.10;;;17.45;79.50;95245.72;5011384;28;20033;-47
2022/06/29 21:38:35;;;;;;;7.35;3.88;;;21.10;59.10;;;17.42;79.50;95243.66;5009810;28;20037;-46
2022/06/29 21:41:05;;;;;;;5.05;4.22;;;21.10;59.40;;;17.39;79.80;95249.66;5026401;28;20036;-43
2022/06/29 21:43:34;;;;;;;4.75;4.20;;;21.00;59.30;;;17.34;80.08;95245.22;4997342;28;20034;-46
2022/06/29 21:46:00;;;;;;;8.43;3.70;;;21.00;59.30;;;17.27;80.61;95243.00;4984914;28;20621;-43
